Startpagina
METAR-TAF:

METAR-TAF

Vliegvelden :

Beiroet, Libanon

breedte: 33-49N, lengte: 035-29E, hoogte: 29 m

Actueel weer

Dit bericht is 1 uur en het 2 minuten geleden gemaakt, om 10:00 UTC
Wind 8 kt uit het westzuidwesten
Temperatuur 29°C
Vochtigheid 66%
Druk 1013 hPa
Zicht: 6000 m
Weinig wolken op 2600 ft

METAR: OLBA 191000Z 25008KT 6000 FEW026 29/22 Q1013 NOSIG

Tijdstip: 14:02 (11:02 UTC)

Verwachting

Dit bericht is 7 uur en het 2 minuten geleden gemaakt, om 04:00 UTC
Verwachting geldig van 19 om 06 UTC tot 20 om 12 UTC
Wind 12 kt uit het westen
Zicht: 8000 m
Verspreide wolken op 2700 ft
Wijzigt naar
van 19 om 20 UTC tot 19 om 22 UTC
Wind 4 kt uit het zuidoosten
Zicht 10 km of meer
Weinig wolken op 3000 ft
Wijzigt naar
van 20 om 07 UTC tot 20 om 09 UTC
Wind 10 kt uit het westzuidwesten
Zicht: 8000 m
Verspreide wolken op 3000 ft

TAF: OLBA 190400Z 1906/2012 26012KT 8000 SCT027 BECMG 1920/1922 14004KT 9999 FEW030 BECMG 2007/2009 25010KT 8000 SCT030

Waarnemingen en weersverwachtingen van meer dan 4000 vliegvelden (METAR en TAF).

De beschikbare stations zijn de gele en rode punten op de kaart.

Ga met uw muis naar het station om de naam te zien.

Klik dan om waarnemingen en weersverwachtingen te zien.

kaart wijzigen: klik op de groene knoppen met een zwart kruis om in te zoomen, op de groene knop met een streepje om uit te zoomen of op de groene pijlen voor aangrenzende kaarten.


METAR-TAF: